Airfield :
LOGIN :

Register | Disclaimer

   EN    FR    IT 

 










Legend :    VFR   Marginal VFR   IFR   Intensive IFR   Very Intensive IFR
Visi :
Ceiling :
>= 8 km
>= 3000ft
5 to 8 km
1000 to 3000 ft
1500m to 5 km
500 to 1000 ft
800 to 1500m
200 to 500 ft
< 800m
< 200 ft
Symbols :   Thunderstorms  Fog  Heavy snow  Heavy precipitations  Wind > 20 kt
SIGMETs :     Misc.  Thunderstorms  Icing  Turbulence  Mountain Waves  Volcanic Ashes






- Airport Elevation : 782 ft
- IATA code : BGY


LIME - Orio al Serio International - Bergamo

CURRENT METAR :
  • 231820Z 31004KT 9999 FEW040 SCT075 16/12 Q1016 NOSIG

EXPIRED METARs :
  • 231750Z 28004KT 260V320 9999 -RA FEW040 SCT070 16/12 Q1016 NOSIG
  • 231720Z 35004KT 320V020 9999 FEW040 SCT070 16/11 Q1016 NOSIG
  • 231650Z 04003KT 010V080 9999 VCSH FEW025 SCT050 16/11 Q1016 NOSIG
  • 231620Z 07005KT 030V100 9999 VCSH FEW025 SCT050 16/12 Q1016 NOSIG
  • 231550Z 09007KT 050V120 9999 FEW025 SCT045 16/12 Q1016 NOSIG
  • 231520Z 10007KT 070V130 9999 FEW025 SCT050 16/13 Q1017 NOSIG
  • 231450Z 13009KT 9999 FEW025 SCT050 15/12 Q1017 NOSIG
  • 231420Z 16007KT 9999 -RA FEW030TCU BKN070 15/13 Q1016 NOSIG
  • 231350Z 28007KT 9999 VCSH FEW040 BKN080 17/12 Q1016 NOSIG

TAF TAF LIME
Valid from the 23 at 18:00 until the 24 at 18:00 UTC


231700Z 2318/2418 VRB05KT 9999 SCT030 BKN050
TEMPO 2318/2321 TSRA
TEMPO 2410/2418 4000 TSRA



MET'MAP, your aeronautical weather chart ! - Copyright ORBIFLY December 2007 - Disclaimer

ORBIFLY MET'MAP TEAM :

Programming & Development : Alexandra Zaïnal
Original concept : Baudouin d'Aumeries
Technical & hardware support : Manuel Goepfert
Assistance : Marc-Olivier Méhu




SOURCES & CREDITS :

   NOAA